sensor_id;sensor_type;location;lat;lon;timestamp;pressure;altitude;pressure_sealevel;temperature;humidity
3844;BME280;1937;51.444;6.484;2023-05-15T00:01:59;68237.78;;;14.24;98.96
3844;BME280;1937;51.444;6.484;2023-05-15T00:04:26;68278.34;;;14.37;98.51
3844;BME280;1937;51.444;6.484;2023-05-15T00:06:52;68230.91;;;14.27;98.54
3844;BME280;1937;51.444;6.484;2023-05-15T00:09:19;68221.13;;;14.39;97.55
3844;BME280;1937;51.444;6.484;2023-05-15T00:11:45;68182.38;;;14.16;98.04
3844;BME280;1937;51.444;6.484;2023-05-15T00:14:13;68208.84;;;14.17;99.31
3844;BME280;1937;51.444;6.484;2023-05-15T00:16:40;68232.09;;;14.28;97.81
3844;BME280;1937;51.444;6.484;2023-05-15T00:19:07;68223.94;;;14.37;97.31
3844;BME280;1937;51.444;6.484;2023-05-15T00:21:33;68219.56;;;14.19;97.87
3844;BME280;1937;51.444;6.484;2023-05-15T00:24:00;68233.47;;;14.11;97.82
3844;BME280;1937;51.444;6.484;2023-05-15T00:26:26;68173.81;;;14.07;98.68
3844;BME280;1937;51.444;6.484;2023-05-15T00:28:55;68253.63;;;14.26;97.71
3844;BME280;1937;51.444;6.484;2023-05-15T00:31:23;68242.28;;;14.19;97.35
3844;BME280;1937;51.444;6.484;2023-05-15T00:33:49;68198.31;;;14.08;97.20
3844;BME280;1937;51.444;6.484;2023-05-15T00:36:16;68200.63;;;14.10;97.43
3844;BME280;1937;51.444;6.484;2023-05-15T00:38:42;68152.38;;;13.86;97.25
3844;BME280;1937;51.444;6.484;2023-05-15T00:41:10;68234.19;;;14.05;96.95
3844;BME280;1937;51.444;6.484;2023-05-15T00:43:38;68178.75;;;14.09;95.80
3844;BME280;1937;51.444;6.484;2023-05-15T00:46:06;68139.44;;;13.86;96.62
3844;BME280;1937;51.444;6.484;2023-05-15T00:48:34;68289.31;;;13.88;97.27
3844;BME280;1937;51.444;6.484;2023-05-15T00:51:00;68108.84;;;13.66;97.04
3844;BME280;1937;51.444;6.484;2023-05-15T00:53:27;68100.81;;;13.68;97.67
3844;BME280;1937;51.444;6.484;2023-05-15T00:55:56;68130.03;;;13.89;96.71
3844;BME280;1937;51.444;6.484;2023-05-15T00:58:23;68115.66;;;13.63;97.15
3844;BME280;1937;51.444;6.484;2023-05-15T01:00:51;68135.94;;;13.83;96.73
3844;BME280;1937;51.444;6.484;2023-05-15T01:03:18;68078.56;;;13.49;97.69
3844;BME280;1937;51.444;6.484;2023-05-15T01:05:46;68119.56;;;13.58;97.85
3844;BME280;1937;51.444;6.484;2023-05-15T01:08:19;68169.72;;;13.76;97.38
3844;BME280;1937;51.444;6.484;2023-05-15T01:10:47;68093.69;;;13.58;97.07
3844;BME280;1937;51.444;6.484;2023-05-15T01:13:14;68131.97;;;13.73;96.86
3844;BME280;1937;51.444;6.484;2023-05-15T01:15:41;68111.25;;;13.73;96.75
3844;BME280;1937;51.444;6.484;2023-05-15T01:18:08;68138.91;;;13.74;96.65
3844;BME280;1937;51.444;6.484;2023-05-15T01:20:49;68148.31;;;13.71;95.99
3844;BME280;1937;51.444;6.484;2023-05-15T01:23:23;68061.50;;;13.30;98.91
3844;BME280;1937;51.444;6.484;2023-05-15T01:26:34;68085.69;;;13.33;98.91
3844;BME280;1937;51.444;6.484;2023-05-15T01:29:13;68148.50;;;13.53;96.88
3844;BME280;1937;51.444;6.484;2023-05-15T01:31:49;68138.41;;;13.51;97.33
3844;BME280;1937;51.444;6.484;2023-05-15T01:34:20;68062.19;;;13.35;98.74
3844;BME280;1937;51.444;6.484;2023-05-15T01:36:52;68128.09;;;13.40;98.26
3844;BME280;1937;51.444;6.484;2023-05-15T01:39:22;68155.28;;;13.62;96.66
3844;BME280;1937;51.444;6.484;2023-05-15T01:41:57;68106.44;;;13.48;96.79
3844;BME280;1937;51.444;6.484;2023-05-15T01:44:29;68020.38;;;13.28;96.57
3844;BME280;1937;51.444;6.484;2023-05-15T01:46:58;68105.66;;;13.39;96.99
3844;BME280;1937;51.444;6.484;2023-05-15T01:49:26;68056.06;;;13.32;97.18
3844;BME280;1937;51.444;6.484;2023-05-15T01:51:58;68040.50;;;13.16;97.80
3844;BME280;1937;51.444;6.484;2023-05-15T01:54:27;68039.72;;;13.06;98.70
3844;BME280;1937;51.444;6.484;2023-05-15T01:56:56;68011.94;;;12.96;98.60
3844;BME280;1937;51.444;6.484;2023-05-15T01:59:23;67982.03;;;12.81;99.52
3844;BME280;1937;51.444;6.484;2023-05-15T02:01:52;68028.84;;;12.95;100.00
3844;BME280;1937;51.444;6.484;2023-05-15T02:04:18;67989.00;;;12.71;100.00
3844;BME280;1937;51.444;6.484;2023-05-15T02:06:46;67988.88;;;12.67;100.00
3844;BME280;1937;51.444;6.484;2023-05-15T02:09:14;68015.72;;;12.86;100.00
3844;BME280;1937;51.444;6.484;2023-05-15T02:11:42;68034.72;;;12.89;99.40
3844;BME280;1937;51.444;6.484;2023-05-15T02:14:10;67957.34;;;12.55;100.00
3844;BME280;1937;51.444;6.484;2023-05-15T02:16:38;67997.56;;;12.70;100.00
3844;BME280;1937;51.444;6.484;2023-05-15T02:19:06;68013.41;;;12.72;100.00
3844;BME280;1937;51.444;6.484;2023-05-15T02:21:32;68005.88;;;12.82;99.97
3844;BME280;1937;51.444;6.484;2023-05-15T02:23:59;68067.97;;;12.86;100.00
3844;BME280;1937;51.444;6.484;2023-05-15T02:26:30;68063.13;;;13.00;99.91
3844;BME280;1937;51.444;6.484;2023-05-15T02:29:10;68064.28;;;13.01;99.69
3844;BME280;1937;51.444;6.484;2023-05-15T02:31:46;68039.06;;;12.90;98.95
3844;BME280;1937;51.444;6.484;2023-05-15T02:34:23;68022.81;;;12.69;100.00
3844;BME280;1937;51.444;6.484;2023-05-15T02:36:53;68019.97;;;12.83;100.00
3844;BME280;1937;51.444;6.484;2023-05-15T02:39:23;68058.63;;;12.78;100.00
3844;BME280;1937;51.444;6.484;2023-05-15T02:41:51;67994.50;;;12.74;100.00
3844;BME280;1937;51.444;6.484;2023-05-15T02:44:19;67971.19;;;12.58;100.00
3844;BME280;1937;51.444;6.484;2023-05-15T02:46:47;68044.47;;;12.88;100.00
3844;BME280;1937;51.444;6.484;2023-05-15T02:49:16;68043.31;;;12.87;100.00
3844;BME280;1937;51.444;6.484;2023-05-15T02:51:43;68059.00;;;12.96;99.21
3844;BME280;1937;51.444;6.484;2023-05-15T02:54:10;68011.53;;;12.66;100.00
3844;BME280;1937;51.444;6.484;2023-05-15T02:56:36;67993.94;;;12.62;100.00
3844;BME280;1937;51.444;6.484;2023-05-15T02:59:03;68045.38;;;12.64;100.00
3844;BME280;1937;51.444;6.484;2023-05-15T03:01:30;68031.25;;;12.75;100.00
3844;BME280;1937;51.444;6.484;2023-05-15T03:03:57;68050.75;;;12.73;100.00
3844;BME280;1937;51.444;6.484;2023-05-15T03:06:25;68024.00;;;12.70;100.00
3844;BME280;1937;51.444;6.484;2023-05-15T03:08:51;68021.63;;;12.68;100.00
3844;BME280;1937;51.444;6.484;2023-05-15T03:11:18;67999.34;;;12.71;99.63
3844;BME280;1937;51.444;6.484;2023-05-15T03:13:45;68037.34;;;12.78;100.00
3844;BME280;1937;51.444;6.484;2023-05-15T03:16:12;68004.06;;;12.64;99.33
3844;BME280;1937;51.444;6.484;2023-05-15T03:18:38;68031.28;;;12.63;99.40
3844;BME280;1937;51.444;6.484;2023-05-15T03:21:05;68023.31;;;12.65;99.41
3844;BME280;1937;51.444;6.484;2023-05-15T03:23:33;68048.16;;;12.73;98.94
3844;BME280;1937;51.444;6.484;2023-05-15T03:26:00;67950.25;;;12.45;99.63
3844;BME280;1937;51.444;6.484;2023-05-15T03:28:26;67967.53;;;12.35;100.00
3844;BME280;1937;51.444;6.484;2023-05-15T03:30:53;67927.19;;;12.27;100.00
3844;BME280;1937;51.444;6.484;2023-05-15T03:33:19;67932.44;;;12.31;99.88
3844;BME280;1937;51.444;6.484;2023-05-15T03:35:46;67986.06;;;12.42;99.92
3844;BME280;1937;51.444;6.484;2023-05-15T03:38:12;67952.28;;;12.33;99.99
3844;BME280;1937;51.444;6.484;2023-05-15T03:40:40;67976.84;;;12.54;98.98
3844;BME280;1937;51.444;6.484;2023-05-15T03:43:07;67975.69;;;12.53;96.63
3844;BME280;1937;51.444;6.484;2023-05-15T03:45:35;67947.75;;;12.49;97.45
3844;BME280;1937;51.444;6.484;2023-05-15T03:48:02;67931.47;;;12.40;97.79
3844;BME280;1937;51.444;6.484;2023-05-15T03:50:29;67902.97;;;12.08;98.44
3844;BME280;1937;51.444;6.484;2023-05-15T03:52:56;67936.47;;;12.30;98.16
3844;BME280;1937;51.444;6.484;2023-05-15T03:55:23;67908.56;;;12.15;98.48
3844;BME280;1937;51.444;6.484;2023-05-15T03:57:51;67934.75;;;12.45;97.79
3844;BME280;1937;51.444;6.484;2023-05-15T04:00:18;67927.88;;;12.32;98.22
3844;BME280;1937;51.444;6.484;2023-05-15T04:02:44;67941.81;;;12.40;98.80
3844;BME280;1937;51.444;6.484;2023-05-15T04:05:11;67953.63;;;12.43;98.13
3844;BME280;1937;51.444;6.484;2023-05-15T04:07:37;67950.72;;;12.41;98.15
3844;BME280;1937;51.444;6.484;2023-05-15T04:10:05;67935.47;;;12.39;98.64
3844;BME280;1937;51.444;6.484;2023-05-15T04:12:33;67943.13;;;12.34;98.66
3844;BME280;1937;51.444;6.484;2023-05-15T04:15:14;67948.25;;;12.45;97.85
3844;BME280;1937;51.444;6.484;2023-05-15T04:17:41;68008.28;;;12.61;97.61
3844;BME280;1937;51.444;6.484;2023-05-15T04:20:08;68002.16;;;12.69;97.05
3844;BME280;1937;51.444;6.484;2023-05-15T04:22:35;68005.66;;;12.72;95.99
3844;BME280;1937;51.444;6.484;2023-05-15T04:25:02;68017.16;;;12.73;95.60
3844;BME280;1937;51.444;6.484;2023-05-15T04:27:30;67983.25;;;12.71;96.65
3844;BME280;1937;51.444;6.484;2023-05-15T04:29:56;67979.88;;;12.61;96.12
3844;BME280;1937;51.444;6.484;2023-05-15T04:32:24;67989.78;;;12.54;96.88
3844;BME280;1937;51.444;6.484;2023-05-15T04:34:51;67917.75;;;12.41;97.77
3844;BME280;1937;51.444;6.484;2023-05-15T04:37:18;67919.03;;;12.47;98.01
3844;BME280;1937;51.444;6.484;2023-05-15T04:39:45;67981.44;;;12.54;97.21
3844;BME280;1937;51.444;6.484;2023-05-15T04:42:11;68005.09;;;12.61;97.11
3844;BME280;1937;51.444;6.484;2023-05-15T04:44:38;67962.88;;;12.58;97.39
3844;BME280;1937;51.444;6.484;2023-05-15T04:47:04;67989.06;;;12.49;97.86
3844;BME280;1937;51.444;6.484;2023-05-15T04:49:32;67995.63;;;12.59;97.69
3844;BME280;1937;51.444;6.484;2023-05-15T04:51:59;67988.94;;;12.56;98.52
3844;BME280;1937;51.444;6.484;2023-05-15T04:54:25;68053.09;;;12.76;98.14
3844;BME280;1937;51.444;6.484;2023-05-15T04:56:52;68010.03;;;12.63;98.31
3844;BME280;1937;51.444;6.484;2023-05-15T04:59:19;68037.19;;;12.84;96.59
3844;BME280;1937;51.444;6.484;2023-05-15T05:01:45;68029.34;;;12.80;97.30
3844;BME280;1937;51.444;6.484;2023-05-15T05:04:12;68004.63;;;12.65;98.37
3844;BME280;1937;51.444;6.484;2023-05-15T05:06:40;68056.47;;;12.85;97.46
3844;BME280;1937;51.444;6.484;2023-05-15T05:09:06;68007.13;;;12.60;98.46
3844;BME280;1937;51.444;6.484;2023-05-15T05:11:35;68064.56;;;12.88;98.18
3844;BME280;1937;51.444;6.484;2023-05-15T05:14:03;68032.19;;;12.78;97.93
3844;BME280;1937;51.444;6.484;2023-05-15T05:16:29;68024.09;;;12.75;96.93
3844;BME280;1937;51.444;6.484;2023-05-15T05:18:56;68080.84;;;12.97;96.87
3844;BME280;1937;51.444;6.484;2023-05-15T05:21:23;68084.25;;;13.07;96.14
3844;BME280;1937;51.444;6.484;2023-05-15T05:23:50;67967.41;;;12.68;96.26
3844;BME280;1937;51.444;6.484;2023-05-15T05:26:17;67999.75;;;12.79;97.28
3844;BME280;1937;51.444;6.484;2023-05-15T05:28:44;68000.78;;;12.59;97.14
3844;BME280;1937;51.444;6.484;2023-05-15T05:31:10;68067.38;;;12.86;96.85
3844;BME280;1937;51.444;6.484;2023-05-15T05:33:37;67935.56;;;12.43;97.40
3844;BME280;1937;51.444;6.484;2023-05-15T05:36:04;68076.41;;;12.91;96.53
3844;BME280;1937;51.444;6.484;2023-05-15T05:38:31;68081.38;;;13.20;94.62
3844;BME280;1937;51.444;6.484;2023-05-15T05:40:59;68055.84;;;12.96;94.56
3844;BME280;1937;51.444;6.484;2023-05-15T05:43:26;67943.28;;;12.54;97.07
3844;BME280;1937;51.444;6.484;2023-05-15T05:45:52;67954.13;;;12.39;97.68
3844;BME280;1937;51.444;6.484;2023-05-15T05:48:19;67898.31;;;12.31;97.51
3844;BME280;1937;51.444;6.484;2023-05-15T05:50:45;67960.97;;;12.36;96.53
3844;BME280;1937;51.444;6.484;2023-05-15T05:53:12;67957.94;;;12.56;97.02
3844;BME280;1937;51.444;6.484;2023-05-15T05:55:39;67994.22;;;12.60;96.20
3844;BME280;1937;51.444;6.484;2023-05-15T05:58:07;68029.34;;;12.80;95.66
3844;BME280;1937;51.444;6.484;2023-05-15T06:00:33;68059.91;;;13.10;93.05
3844;BME280;1937;51.444;6.484;2023-05-15T06:03:00;68073.75;;;13.25;92.72
3844;BME280;1937;51.444;6.484;2023-05-15T06:05:27;68032.06;;;13.11;92.16
3844;BME280;1937;51.444;6.484;2023-05-15T06:07:54;67991.72;;;12.92;93.16
3844;BME280;1937;51.444;6.484;2023-05-15T06:10:21;68082.25;;;13.07;92.79
3844;BME280;1937;51.444;6.484;2023-05-15T06:12:47;68112.47;;;13.36;91.11
3844;BME280;1937;51.444;6.484;2023-05-15T06:15:16;68078.38;;;13.40;91.52
3844;BME280;1937;51.444;6.484;2023-05-15T06:17:42;67999.47;;;12.92;93.50
3844;BME280;1937;51.444;6.484;2023-05-15T06:20:09;68024.84;;;12.96;93.97
3844;BME280;1937;51.444;6.484;2023-05-15T06:22:36;68054.41;;;12.97;95.15
3844;BME280;1937;51.444;6.484;2023-05-15T06:25:04;68079.75;;;13.23;92.77
3844;BME280;1937;51.444;6.484;2023-05-15T06:27:31;68024.78;;;13.07;93.29
3844;BME280;1937;51.444;6.484;2023-05-15T06:29:58;68128.16;;;13.56;90.89
3844;BME280;1937;51.444;6.484;2023-05-15T06:32:27;68088.06;;;13.50;88.54
3844;BME280;1937;51.444;6.484;2023-05-15T06:34:54;68143.47;;;13.74;89.37
3844;BME280;1937;51.444;6.484;2023-05-15T06:37:20;68079.13;;;13.61;89.13
3844;BME280;1937;51.444;6.484;2023-05-15T06:39:47;68046.22;;;13.28;90.21
3844;BME280;1937;51.444;6.484;2023-05-15T06:42:13;68133.06;;;13.85;88.55
3844;BME280;1937;51.444;6.484;2023-05-15T06:44:40;68150.00;;;13.95;88.85
3844;BME280;1937;51.444;6.484;2023-05-15T06:47:07;68191.31;;;14.17;86.45
3844;BME280;1937;51.444;6.484;2023-05-15T06:49:34;68202.53;;;14.31;86.11
3844;BME280;1937;51.444;6.484;2023-05-15T06:52:01;68117.13;;;13.78;88.70
3844;BME280;1937;51.444;6.484;2023-05-15T06:54:28;68122.34;;;13.67;90.56
3844;BME280;1937;51.444;6.484;2023-05-15T06:56:54;68143.38;;;13.96;87.98
3844;BME280;1937;51.444;6.484;2023-05-15T06:59:21;68149.53;;;14.15;85.48
3844;BME280;1937;51.444;6.484;2023-05-15T07:01:47;68258.41;;;14.46;86.42
3844;BME280;1937;51.444;6.484;2023-05-15T07:04:14;68361.88;;;15.02;84.39
3844;BME280;1937;51.444;6.484;2023-05-15T07:06:42;68413.53;;;15.57;81.37
3844;BME280;1937;51.444;6.484;2023-05-15T07:09:08;68386.25;;;15.63;78.41
3844;BME280;1937;51.444;6.484;2023-05-15T07:11:35;68301.75;;;15.22;79.97
3844;BME280;1937;51.444;6.484;2023-05-15T07:14:03;68391.28;;;15.43;80.13
3844;BME280;1937;51.444;6.484;2023-05-15T07:16:29;68374.72;;;15.51;79.89
3844;BME280;1937;51.444;6.484;2023-05-15T07:18:56;68467.13;;;15.97;78.66
3844;BME280;1937;51.444;6.484;2023-05-15T07:21:22;68340.22;;;15.41;80.19
3844;BME280;1937;51.444;6.484;2023-05-15T07:23:50;68365.97;;;15.59;77.90
3844;BME280;1937;51.444;6.484;2023-05-15T07:26:17;68311.84;;;15.50;77.65
3844;BME280;1937;51.444;6.484;2023-05-15T07:28:44;68212.41;;;15.05;78.96
3844;BME280;1937;51.444;6.484;2023-05-15T07:31:10;68257.25;;;15.14;79.64
3844;BME280;1937;51.444;6.484;2023-05-15T07:33:37;68371.34;;;15.68;77.89
3844;BME280;1937;51.444;6.484;2023-05-15T07:36:04;68533.97;;;16.46;76.19
3844;BME280;1937;51.444;6.484;2023-05-15T07:38:31;68349.16;;;15.85;74.68
3844;BME280;1937;51.444;6.484;2023-05-15T07:40:59;68315.75;;;15.72;75.58
3844;BME280;1937;51.444;6.484;2023-05-15T07:43:26;68370.53;;;15.85;75.95
3844;BME280;1937;51.444;6.484;2023-05-15T07:45:52;68365.84;;;15.81;76.64
3844;BME280;1937;51.444;6.484;2023-05-15T07:48:19;68442.72;;;16.32;74.43
3844;BME280;1937;51.444;6.484;2023-05-15T07:50:46;68403.59;;;16.23;71.55
3844;BME280;1937;51.444;6.484;2023-05-15T07:53:15;68419.97;;;16.48;70.94
3844;BME280;1937;51.444;6.484;2023-05-15T07:55:42;68452.56;;;16.47;72.64
3844;BME280;1937;51.444;6.484;2023-05-15T07:58:10;68254.53;;;15.52;75.57
3844;BME280;1937;51.444;6.484;2023-05-15T08:00:37;68246.97;;;15.50;73.61
3844;BME280;1937;51.444;6.484;2023-05-15T08:03:03;68177.59;;;15.24;76.23
3844;BME280;1937;51.444;6.484;2023-05-15T08:05:30;68291.31;;;15.75;74.15
3844;BME280;1937;51.444;6.484;2023-05-15T08:07:56;68378.28;;;16.12;74.66
3844;BME280;1937;51.444;6.484;2023-05-15T08:10:23;68395.69;;;16.03;76.11
3844;BME280;1937;51.444;6.484;2023-05-15T08:12:50;68499.88;;;16.59;74.95
3844;BME280;1937;51.444;6.484;2023-05-15T08:15:18;68701.63;;;17.70;69.64
3844;BME280;1937;51.444;6.484;2023-05-15T08:17:44;68707.44;;;17.70;68.94
3844;BME280;1937;51.444;6.484;2023-05-15T08:20:12;68749.88;;;18.22;66.95
3844;BME280;1937;51.444;6.484;2023-05-15T08:22:38;68805.47;;;18.36;67.64
3844;BME280;1937;51.444;6.484;2023-05-15T08:25:06;68859.47;;;18.85;65.72
3844;BME280;1937;51.444;6.484;2023-05-15T08:27:33;68918.72;;;19.02;63.62
3844;BME280;1937;51.444;6.484;2023-05-15T08:29:59;68694.25;;;17.92;67.86
3844;BME280;1937;51.444;6.484;2023-05-15T08:32:27;68735.25;;;18.30;67.16
3844;BME280;1937;51.444;6.484;2023-05-15T08:34:54;68809.53;;;18.51;67.08
3844;BME280;1937;51.444;6.484;2023-05-15T08:37:21;68874.75;;;18.94;63.53
3844;BME280;1937;51.444;6.484;2023-05-15T08:39:47;68773.22;;;18.76;63.34
3844;BME280;1937;51.444;6.484;2023-05-15T08:42:19;68658.13;;;17.95;68.40
3844;BME280;1937;51.444;6.484;2023-05-15T08:44:46;68685.03;;;18.09;65.64
3844;BME280;1937;51.444;6.484;2023-05-15T08:47:13;68605.53;;;17.83;66.90
3844;BME280;1937;51.444;6.484;2023-05-15T08:49:49;68757.03;;;18.49;65.80
3844;BME280;1937;51.444;6.484;2023-05-15T08:52:16;68755.59;;;18.50;66.18
3844;BME280;1937;51.444;6.484;2023-05-15T08:54:44;68752.50;;;18.54;64.25
3844;BME280;1937;51.444;6.484;2023-05-15T08:57:12;68870.44;;;18.97;65.60
3844;BME280;1937;51.444;6.484;2023-05-15T08:59:39;68896.00;;;19.28;63.13
3844;BME280;1937;51.444;6.484;2023-05-15T09:02:06;68738.63;;;18.71;63.62
3844;BME280;1937;51.444;6.484;2023-05-15T09:04:33;68837.53;;;19.36;59.66
3844;BME280;1937;51.444;6.484;2023-05-15T09:07:02;68980.22;;;19.75;58.54
3844;BME280;1937;51.444;6.484;2023-05-15T09:09:30;69162.19;;;20.53;57.92
3844;BME280;1937;51.444;6.484;2023-05-15T09:11:58;68782.63;;;19.15;62.48
3844;BME280;1937;51.444;6.484;2023-05-15T09:14:25;68931.25;;;19.65;60.64
3844;BME280;1937;51.444;6.484;2023-05-15T09:16:52;68915.81;;;19.62;60.42
3844;BME280;1937;51.444;6.484;2023-05-15T09:19:19;69096.09;;;20.32;57.58
3844;BME280;1937;51.444;6.484;2023-05-15T09:21:46;69072.19;;;20.45;56.12
3844;BME280;1937;51.444;6.484;2023-05-15T09:24:19;69015.66;;;20.21;55.30
3844;BME280;1937;51.444;6.484;2023-05-15T09:27:00;69071.63;;;20.60;53.24
3844;BME280;1937;51.444;6.484;2023-05-15T09:29:29;69143.72;;;21.06;54.01
3844;BME280;1937;51.444;6.484;2023-05-15T09:31:56;68982.59;;;20.40;52.95
3844;BME280;1937;51.444;6.484;2023-05-15T09:34:28;69107.75;;;20.80;54.65
3844;BME280;1937;51.444;6.484;2023-05-15T09:36:55;69120.75;;;20.91;54.97
3844;BME280;1937;51.444;6.484;2023-05-15T09:39:23;68823.63;;;19.37;60.91
3844;BME280;1937;51.444;6.484;2023-05-15T09:41:50;68615.38;;;18.66;60.64
3844;BME280;1937;51.444;6.484;2023-05-15T09:44:18;69036.09;;;20.41;58.83
3844;BME280;1937;51.444;6.484;2023-05-15T09:46:45;69096.88;;;20.73;56.19
3844;BME280;1937;51.444;6.484;2023-05-15T09:49:12;69158.34;;;21.10;52.77
3844;BME280;1937;51.444;6.484;2023-05-15T09:51:39;69280.16;;;21.62;51.58
3844;BME280;1937;51.444;6.484;2023-05-15T09:54:05;69347.66;;;21.89;52.10
3844;BME280;1937;51.444;6.484;2023-05-15T09:56:42;68910.81;;;20.08;54.50
3844;BME280;1937;51.444;6.484;2023-05-15T09:59:12;69004.09;;;20.56;55.30
3844;BME280;1937;51.444;6.484;2023-05-15T10:01:41;69079.28;;;20.82;52.27
3844;BME280;1937;51.444;6.484;2023-05-15T10:04:08;69259.09;;;21.58;50.56
3844;BME280;1937;51.444;6.484;2023-05-15T10:06:35;69023.06;;;20.77;52.13
3844;BME280;1937;51.444;6.484;2023-05-15T10:09:02;69199.75;;;21.45;51.29
3844;BME280;1937;51.444;6.484;2023-05-15T10:11:29;69261.47;;;21.76;49.53
3844;BME280;1937;51.444;6.484;2023-05-15T10:13:58;69040.75;;;20.92;51.69
3844;BME280;1937;51.444;6.484;2023-05-15T10:16:25;69397.63;;;22.40;49.29
3844;BME280;1937;51.444;6.484;2023-05-15T10:18:52;69442.59;;;22.59;48.46
3844;BME280;1937;51.444;6.484;2023-05-15T10:21:22;69515.06;;;22.94;47.00
3844;BME280;1937;51.444;6.484;2023-05-15T10:23:49;69459.72;;;22.69;47.94
3844;BME280;1937;51.444;6.484;2023-05-15T10:26:19;69431.41;;;22.69;47.68
3844;BME280;1937;51.444;6.484;2023-05-15T10:28:49;69493.97;;;22.89;47.19
3844;BME280;1937;51.444;6.484;2023-05-15T10:31:19;69023.84;;;21.07;49.69
3844;BME280;1937;51.444;6.484;2023-05-15T10:33:46;68921.50;;;20.73;49.96
3844;BME280;1937;51.444;6.484;2023-05-15T10:36:13;69187.72;;;21.73;47.45
3844;BME280;1937;51.444;6.484;2023-05-15T10:38:41;69008.81;;;21.12;49.24
3844;BME280;1937;51.444;6.484;2023-05-15T10:41:10;68974.34;;;21.05;48.53
3844;BME280;1937;51.444;6.484;2023-05-15T10:43:38;69224.72;;;21.91;47.49
3844;BME280;1937;51.444;6.484;2023-05-15T10:46:08;69345.38;;;22.54;45.69
3844;BME280;1937;51.444;6.484;2023-05-15T10:48:37;69385.84;;;22.82;43.51
3844;BME280;1937;51.444;6.484;2023-05-15T10:51:04;69471.16;;;23.19;43.86
3844;BME280;1937;51.444;6.484;2023-05-15T10:53:31;69401.97;;;22.84;45.66
3844;BME280;1937;51.444;6.484;2023-05-15T10:55:57;69167.63;;;22.08;44.44
3844;BME280;1937;51.444;6.484;2023-05-15T10:58:24;69261.09;;;22.36;45.04
3844;BME280;1937;51.444;6.484;2023-05-15T11:00:51;69131.94;;;21.99;43.44
3844;BME280;1937;51.444;6.484;2023-05-15T11:06:08;69219.41;;;22.74;38.52
3844;BME280;1937;51.444;6.484;2023-05-15T11:08:35;69309.38;;;23.00;40.83
3844;BME280;1937;51.444;6.484;2023-05-15T11:11:02;69229.28;;;22.90;41.55
3844;BME280;1937;51.444;6.484;2023-05-15T11:17:00;69083.03;;;22.02;43.74
3844;BME280;1937;51.444;6.484;2023-05-15T11:19:33;69277.50;;;22.77;42.41
3844;BME280;1937;51.444;6.484;2023-05-15T11:22:15;69105.19;;;22.24;44.59
3844;BME280;1937;51.444;6.484;2023-05-15T11:24:50;69225.41;;;22.68;42.39
3844;BME280;1937;51.444;6.484;2023-05-15T11:27:18;69559.91;;;23.81;43.69
3844;BME280;1937;51.444;6.484;2023-05-15T11:30:10;69184.97;;;22.36;43.54
3844;BME280;1937;51.444;6.484;2023-05-15T11:32:41;69108.03;;;21.97;46.55
3844;BME280;1937;51.444;6.484;2023-05-15T11:35:09;69029.13;;;21.83;45.35
3844;BME280;1937;51.444;6.484;2023-05-15T11:37:41;69094.38;;;22.01;47.27
3844;BME280;1937;51.444;6.484;2023-05-15T11:40:12;69156.16;;;22.20;47.00
3844;BME280;1937;51.444;6.484;2023-05-15T11:42:39;69176.50;;;22.35;46.52
3844;BME280;1937;51.444;6.484;2023-05-15T11:45:07;69154.28;;;22.30;46.38
3844;BME280;1937;51.444;6.484;2023-05-15T11:47:34;69254.34;;;22.53;46.29
3844;BME280;1937;51.444;6.484;2023-05-15T11:50:03;69300.13;;;22.85;46.15
3844;BME280;1937;51.444;6.484;2023-05-15T11:52:31;69413.06;;;23.21;46.54
3844;BME280;1937;51.444;6.484;2023-05-15T11:54:59;69234.66;;;22.63;46.55
3844;BME280;1937;51.444;6.484;2023-05-15T11:57:26;69313.84;;;22.70;46.87
3844;BME280;1937;51.444;6.484;2023-05-15T11:59:53;69356.34;;;22.97;46.72
3844;BME280;1937;51.444;6.484;2023-05-15T12:02:20;69240.19;;;22.61;47.22
3844;BME280;1937;51.444;6.484;2023-05-15T12:04:48;69345.50;;;22.95;46.81
3844;BME280;1937;51.444;6.484;2023-05-15T12:07:16;69008.72;;;21.63;47.95
3844;BME280;1937;51.444;6.484;2023-05-15T12:09:42;68825.25;;;20.73;52.17
3844;BME280;1937;51.444;6.484;2023-05-15T12:12:13;69085.28;;;21.80;49.51
3844;BME280;1937;51.444;6.484;2023-05-15T12:14:39;69384.13;;;23.01;49.07
3844;BME280;1937;51.444;6.484;2023-05-15T12:17:06;69338.34;;;22.84;48.98
3844;BME280;1937;51.444;6.484;2023-05-15T12:19:33;69266.78;;;22.63;48.90
3844;BME280;1937;51.444;6.484;2023-05-15T12:22:03;69059.13;;;21.64;49.71
3844;BME280;1937;51.444;6.484;2023-05-15T12:24:30;69062.16;;;21.91;49.32
3844;BME280;1937;51.444;6.484;2023-05-15T12:26:56;69151.63;;;22.10;49.29
3844;BME280;1937;51.444;6.484;2023-05-15T12:29:25;69103.25;;;22.09;51.02
3844;BME280;1937;51.444;6.484;2023-05-15T12:31:52;69178.53;;;22.15;51.04
3844;BME280;1937;51.444;6.484;2023-05-15T12:34:19;69198.16;;;22.40;50.23
3844;BME280;1937;51.444;6.484;2023-05-15T12:36:45;69133.38;;;21.98;50.70
3844;BME280;1937;51.444;6.484;2023-05-15T12:39:12;69097.72;;;21.75;50.16
3844;BME280;1937;51.444;6.484;2023-05-15T12:41:39;68842.13;;;20.74;53.50
3844;BME280;1937;51.444;6.484;2023-05-15T12:44:05;68893.09;;;20.80;54.50
3844;BME280;1937;51.444;6.484;2023-05-15T12:46:33;68795.75;;;20.43;55.44
3844;BME280;1937;51.444;6.484;2023-05-15T12:49:00;68731.81;;;20.02;57.91
3844;BME280;1937;51.444;6.484;2023-05-15T12:51:26;68847.22;;;20.45;57.23
3844;BME280;1937;51.444;6.484;2023-05-15T12:53:54;68833.47;;;20.40;56.39
3844;BME280;1937;51.444;6.484;2023-05-15T12:56:22;68928.59;;;20.79;56.77
3844;BME280;1937;51.444;6.484;2023-05-15T12:58:49;68866.75;;;20.66;56.49
3844;BME280;1937;51.444;6.484;2023-05-15T13:01:18;68892.94;;;20.51;56.99
3844;BME280;1937;51.444;6.484;2023-05-15T13:03:48;68881.19;;;20.61;57.52
3844;BME280;1937;51.444;6.484;2023-05-15T13:06:15;68918.13;;;20.79;57.81
3844;BME280;1937;51.444;6.484;2023-05-15T13:08:42;68963.47;;;20.98;55.03
3844;BME280;1937;51.444;6.484;2023-05-15T13:11:10;68972.25;;;21.01;56.56
3844;BME280;1937;51.444;6.484;2023-05-15T13:13:42;69007.63;;;21.11;55.93
3844;BME280;1937;51.444;6.484;2023-05-15T13:16:19;69108.84;;;21.59;55.10
3844;BME280;1937;51.444;6.484;2023-05-15T13:18:47;69093.94;;;21.38;55.13
3844;BME280;1937;51.444;6.484;2023-05-15T13:21:14;69105.66;;;21.59;53.50
3844;BME280;1937;51.444;6.484;2023-05-15T13:23:41;69100.06;;;21.56;53.26
3844;BME280;1937;51.444;6.484;2023-05-15T13:26:08;69131.84;;;21.59;54.86
3844;BME280;1937;51.444;6.484;2023-05-15T13:28:34;69080.44;;;21.67;52.51
3844;BME280;1937;51.444;6.484;2023-05-15T13:31:01;68954.19;;;20.99;54.53